createdAt,value
2023-01-13T00:02:01.290Z,66.15
2023-01-13T00:04:29.265Z,66.22
2023-01-13T00:06:57.479Z,66.30
2023-01-13T00:09:25.394Z,66.31
2023-01-13T00:11:53.408Z,66.28
2023-01-13T00:14:21.485Z,66.26
2023-01-13T00:16:49.385Z,66.24
2023-01-13T00:19:17.385Z,66.31
2023-01-13T00:21:45.356Z,66.07
2023-01-13T00:24:13.325Z,66.07
2023-01-13T00:26:42.407Z,65.99
2023-01-13T00:29:10.374Z,66.18
2023-01-13T00:31:38.567Z,66.13
2023-01-13T00:34:06.518Z,66.03
2023-01-13T00:36:34.556Z,66.03
2023-01-13T00:39:03.958Z,66.01
2023-01-13T00:41:52.029Z,65.89
2023-01-13T00:44:21.227Z,65.75
2023-01-13T00:46:49.379Z,65.69
2023-01-13T00:49:17.382Z,65.66
2023-01-13T00:51:45.311Z,65.65
2023-01-13T00:54:13.427Z,65.74
2023-01-13T00:56:41.579Z,65.56
2023-01-13T00:59:14.073Z,65.50
2023-01-13T01:01:42.545Z,65.62
2023-01-13T01:04:11.317Z,65.48
2023-01-13T01:06:39.349Z,65.48
2023-01-13T01:09:07.275Z,65.51
2023-01-13T01:11:35.339Z,65.38
2023-01-13T01:14:03.989Z,65.31
2023-01-13T01:16:34.188Z,65.16
2023-01-13T01:19:02.537Z,65.09
2023-01-13T01:21:30.969Z,65.07
2023-01-13T01:24:00.824Z,64.85
2023-01-13T01:26:30.323Z,64.83
2023-01-13T01:28:59.631Z,64.83
2023-01-13T01:31:32.940Z,64.81
2023-01-13T01:34:01.530Z,64.37
2023-01-13T01:36:30.356Z,64.18
2023-01-13T01:39:00.068Z,63.93
2023-01-13T01:41:32.470Z,63.74
2023-01-13T01:44:07.373Z,63.48
2023-01-13T01:46:38.574Z,63.46
2023-01-13T01:49:31.725Z,63.04
2023-01-13T01:52:06.855Z,62.95
2023-01-13T01:54:40.968Z,62.88
2023-01-13T01:57:14.381Z,63.01
2023-01-13T01:59:42.800Z,62.87
2023-01-13T02:02:11.819Z,62.95
2023-01-13T02:04:43.460Z,62.70
2023-01-13T02:07:11.644Z,62.53
2023-01-13T02:09:39.852Z,62.64
2023-01-13T02:12:26.687Z,62.56
2023-01-13T02:14:56.450Z,62.56
2023-01-13T02:17:42.869Z,62.62
2023-01-13T02:20:23.015Z,62.84
2023-01-13T02:23:43.010Z,62.87
2023-01-13T02:26:32.895Z,62.99
2023-01-13T02:29:46.196Z,62.80
2023-01-13T02:32:29.363Z,62.90
2023-01-13T02:35:21.630Z,62.98
2023-01-13T02:37:51.100Z,62.97
2023-01-13T02:40:31.144Z,63.03
2023-01-13T02:43:25.093Z,62.96
2023-01-13T02:45:58.906Z,63.11
2023-01-13T02:48:31.474Z,62.99
2023-01-13T02:51:10.221Z,63.00
2023-01-13T02:53:48.206Z,62.96
2023-01-13T02:56:17.578Z,63.07
2023-01-13T02:58:47.419Z,62.78
2023-01-13T03:01:15.393Z,62.81
2023-01-13T03:03:44.551Z,62.64
2023-01-13T03:06:41.867Z,62.79
2023-01-13T03:09:29.934Z,62.84
2023-01-13T03:12:10.085Z,62.70
2023-01-13T03:15:03.536Z,62.50
2023-01-13T03:17:34.533Z,62.59
2023-01-13T03:20:13.085Z,62.52
2023-01-13T03:22:50.165Z,62.43
2023-01-13T03:25:27.035Z,62.48
2023-01-13T03:27:59.245Z,62.56
2023-01-13T03:30:29.476Z,62.68
2023-01-13T03:33:02.910Z,62.65
2023-01-13T03:35:32.752Z,62.72
2023-01-13T03:38:06.968Z,62.72
2023-01-13T03:40:58.918Z,62.81
2023-01-13T03:43:59.919Z,62.64
2023-01-13T03:46:53.734Z,62.65
2023-01-13T03:49:26.622Z,62.71
2023-01-13T03:51:58.992Z,62.82
2023-01-13T03:54:31.041Z,62.94
2023-01-13T03:57:07.606Z,62.96
2023-01-13T03:59:41.466Z,63.20
2023-01-13T04:02:19.685Z,63.21
2023-01-13T04:04:58.551Z,63.30
2023-01-13T04:07:56.361Z,63.30
2023-01-13T04:10:52.013Z,63.20
2023-01-13T04:13:24.376Z,63.38
2023-01-13T04:15:52.502Z,63.57
2023-01-13T04:18:26.694Z,63.38
2023-01-13T04:20:58.332Z,63.12
2023-01-13T04:23:28.002Z,62.81
2023-01-13T04:25:56.530Z,62.67
2023-01-13T04:28:25.331Z,62.57
2023-01-13T04:30:53.464Z,62.51
2023-01-13T04:33:21.385Z,62.26
2023-01-13T04:35:49.746Z,62.27
2023-01-13T04:38:20.635Z,62.09
2023-01-13T04:40:48.979Z,62.03
2023-01-13T04:43:17.896Z,61.84
2023-01-13T04:45:46.228Z,61.91
2023-01-13T04:48:14.652Z,61.85
2023-01-13T04:50:42.632Z,61.85
2023-01-13T04:53:10.873Z,61.86
2023-01-13T04:55:38.775Z,61.75
2023-01-13T04:58:09.413Z,61.87
2023-01-13T05:00:38.044Z,61.99
2023-01-13T05:03:07.256Z,61.94
2023-01-13T05:05:35.958Z,61.94
2023-01-13T05:08:04.715Z,61.85
2023-01-13T05:10:32.859Z,61.74
2023-01-13T05:13:19.264Z,61.59
2023-01-13T05:16:06.856Z,61.43
2023-01-13T05:18:37.226Z,61.48
2023-01-13T05:21:25.295Z,61.35
2023-01-13T05:24:11.988Z,61.27
2023-01-13T05:26:39.915Z,61.08
2023-01-13T05:29:07.790Z,61.04
2023-01-13T05:31:35.802Z,60.96
2023-01-13T05:34:03.729Z,60.72
2023-01-13T05:36:31.711Z,60.70
2023-01-13T05:38:59.608Z,60.62
2023-01-13T05:41:46.342Z,60.59
2023-01-13T05:44:14.501Z,60.44
2023-01-13T05:46:42.507Z,60.48
2023-01-13T05:49:10.494Z,60.65
2023-01-13T05:51:38.499Z,60.57
2023-01-13T05:54:06.539Z,60.62
2023-01-13T05:56:35.196Z,60.57
2023-01-13T05:59:03.262Z,60.51
2023-01-13T06:01:31.427Z,60.55
2023-01-13T06:03:59.632Z,60.58
2023-01-13T06:07:08.132Z,60.59
2023-01-13T06:09:36.284Z,60.70
2023-01-13T06:12:04.835Z,60.69
2023-01-13T06:14:40.118Z,60.40
2023-01-13T06:17:14.480Z,60.40
2023-01-13T06:19:43.038Z,60.21
2023-01-13T06:22:25.304Z,60.15
2023-01-13T06:24:54.572Z,60.01
2023-01-13T06:27:23.421Z,59.90
2023-01-13T06:29:52.445Z,59.96
2023-01-13T06:32:26.601Z,60.06
2023-01-13T06:35:05.385Z,59.86
2023-01-13T06:37:34.834Z,59.84
2023-01-13T06:40:06.147Z,59.87
2023-01-13T06:42:55.971Z,59.87
2023-01-13T06:45:26.284Z,59.75
2023-01-13T06:47:54.799Z,59.80
2023-01-13T06:50:24.953Z,59.74
2023-01-13T06:52:52.966Z,59.65
2023-01-13T06:55:21.235Z,59.84
2023-01-13T06:57:57.627Z,59.84
2023-01-13T07:00:26.933Z,59.90
2023-01-13T07:03:09.614Z,59.74
2023-01-13T07:05:38.655Z,59.73
2023-01-13T07:08:07.583Z,59.90
2023-01-13T07:10:37.328Z,59.93
2023-01-13T07:13:24.382Z,59.80
2023-01-13T07:16:03.613Z,59.80
2023-01-13T07:18:34.439Z,59.94
2023-01-13T07:21:05.579Z,60.10
2023-01-13T07:23:36.719Z,60.13
2023-01-13T07:26:05.452Z,59.79
2023-01-13T07:28:33.358Z,59.82
2023-01-13T07:31:01.932Z,59.72
2023-01-13T07:33:33.292Z,59.79
2023-01-13T07:36:04.756Z,59.80
2023-01-13T07:38:34.336Z,59.76
2023-01-13T07:41:21.380Z,59.71
2023-01-13T07:43:50.338Z,59.75
2023-01-13T07:46:19.114Z,59.64
2023-01-13T07:48:49.173Z,59.38
2023-01-13T07:51:17.760Z,59.18
2023-01-13T07:53:45.601Z,59.16
2023-01-13T07:56:13.802Z,59.17
2023-01-13T07:58:42.010Z,59.21
2023-01-13T08:01:12.675Z,59.31
2023-01-13T08:03:41.364Z,59.06
2023-01-13T08:06:11.220Z,59.16
2023-01-13T08:08:39.635Z,58.92
2023-01-13T08:11:08.856Z,58.73
2023-01-13T08:13:37.149Z,58.74
2023-01-13T08:16:08.733Z,58.70
2023-01-13T08:18:38.235Z,58.69
2023-01-13T08:21:13.009Z,58.86
2023-01-13T08:23:43.399Z,58.92
2023-01-13T08:26:14.972Z,59.12
2023-01-13T08:28:43.021Z,59.08
2023-01-13T08:31:14.349Z,58.95
2023-01-13T08:33:42.912Z,58.91
2023-01-13T08:36:12.856Z,58.75
2023-01-13T08:38:41.901Z,58.51
2023-01-13T08:41:36.135Z,58.54
2023-01-13T08:44:06.699Z,58.49
2023-01-13T08:46:35.737Z,58.38
2023-01-13T08:49:04.158Z,58.23
2023-01-13T08:51:32.225Z,58.30
2023-01-13T08:54:00.401Z,58.33
2023-01-13T08:56:31.306Z,58.15
2023-01-13T08:59:00.880Z,58.03
2023-01-13T09:01:29.181Z,57.75
2023-01-13T09:03:57.345Z,56.73
2023-01-13T09:06:25.439Z,56.43
2023-01-13T09:08:53.399Z,55.58
2023-01-13T09:11:53.219Z,55.18
2023-01-13T09:14:23.468Z,54.05
2023-01-13T09:16:51.496Z,53.46
2023-01-13T09:19:19.412Z,53.31
2023-01-13T09:21:47.661Z,53.03
2023-01-13T09:24:16.064Z,53.12
2023-01-13T09:26:43.930Z,53.24
2023-01-13T09:29:14.158Z,53.54
2023-01-13T09:31:44.214Z,53.73
2023-01-13T09:34:38.049Z,54.27
2023-01-13T09:37:07.194Z,54.48
2023-01-13T09:39:36.423Z,54.50
2023-01-13T09:42:58.621Z,54.43
2023-01-13T09:45:32.646Z,54.09
2023-01-13T09:48:22.282Z,54.04
2023-01-13T09:51:02.689Z,53.76
2023-01-13T09:53:37.520Z,53.54
2023-01-13T09:56:06.221Z,53.49
2023-01-13T09:58:34.772Z,53.10
2023-01-13T10:01:29.732Z,53.02
2023-01-13T10:04:03.718Z,52.64
2023-01-13T10:06:42.287Z,52.49
2023-01-13T10:09:46.453Z,52.45
2023-01-13T10:12:38.152Z,52.05
2023-01-13T10:15:06.630Z,52.30
2023-01-13T10:17:44.534Z,51.57
2023-01-13T10:20:18.144Z,50.52
2023-01-13T10:22:54.673Z,49.62
2023-01-13T10:25:38.949Z,48.93
2023-01-13T10:28:13.130Z,48.53
2023-01-13T10:30:44.782Z,48.25
2023-01-13T10:33:41.317Z,48.04
2023-01-13T10:36:12.225Z,49.16
2023-01-13T10:38:44.584Z,49.56
2023-01-13T10:41:15.631Z,50.41
2023-01-13T10:43:45.165Z,50.86
2023-01-13T10:46:16.459Z,51.22
2023-01-13T10:48:53.679Z,51.52
2023-01-13T10:51:26.461Z,52.00
2023-01-13T10:54:03.867Z,52.35
2023-01-13T10:56:34.299Z,52.57
2023-01-13T10:59:24.230Z,52.65
2023-01-13T11:02:00.908Z,52.66
2023-01-13T11:04:51.016Z,52.85
2023-01-13T11:07:45.972Z,53.00
2023-01-13T11:10:30.638Z,53.27
2023-01-13T11:12:58.578Z,53.41
2023-01-13T11:15:38.731Z,53.06
2023-01-13T11:18:22.556Z,53.13
2023-01-13T11:20:53.050Z,53.12
2023-01-13T11:23:30.424Z,53.04
2023-01-13T11:26:05.622Z,52.80
2023-01-13T11:29:02.548Z,52.89
2023-01-13T11:31:36.391Z,52.97
2023-01-13T11:34:12.737Z,53.05
2023-01-13T11:36:46.935Z,53.02
2023-01-13T11:39:30.102Z,53.25
2023-01-13T11:42:21.510Z,53.46
2023-01-13T11:44:57.691Z,53.69
2023-01-13T11:47:27.095Z,53.84
2023-01-13T11:49:55.234Z,53.85
2023-01-13T11:53:05.511Z,54.08
2023-01-13T11:55:43.757Z,53.89
2023-01-13T11:58:26.891Z,53.88
2023-01-13T12:01:03.046Z,53.82
2023-01-13T12:03:41.588Z,53.61
2023-01-13T12:06:39.104Z,53.52
2023-01-13T12:09:28.117Z,53.22
2023-01-13T12:12:33.260Z,53.24
2023-01-13T12:15:13.194Z,53.20
2023-01-13T12:18:11.289Z,53.02
2023-01-13T12:20:48.630Z,53.22
2023-01-13T12:23:52.421Z,53.40
2023-01-13T12:26:21.110Z,53.54
2023-01-13T12:29:02.592Z,53.67
2023-01-13T12:31:35.497Z,53.63
2023-01-13T12:34:06.363Z,53.83
2023-01-13T12:36:41.430Z,53.80
2023-01-13T12:39:12.179Z,53.94
2023-01-13T12:42:11.516Z,53.89
2023-01-13T12:45:11.216Z,53.89
2023-01-13T12:47:44.175Z,53.82
2023-01-13T12:50:36.917Z,53.86
2023-01-13T12:53:29.158Z,53.91
2023-01-13T12:56:22.069Z,53.71
2023-01-13T12:58:50.272Z,53.73
2023-01-13T13:01:32.552Z,53.94
2023-01-13T13:04:10.236Z,53.84
2023-01-13T13:07:13.315Z,53.74
2023-01-13T13:09:52.629Z,53.72
2023-01-13T13:13:10.899Z,53.47
2023-01-13T13:15:39.308Z,53.81
2023-01-13T13:18:34.017Z,53.81
2023-01-13T13:21:10.042Z,53.88
2023-01-13T13:23:57.280Z,53.90
2023-01-13T13:26:31.856Z,54.03
2023-01-13T13:29:38.414Z,54.34
2023-01-13T13:32:33.073Z,54.58
2023-01-13T13:35:21.065Z,54.72
2023-01-13T13:38:23.333Z,55.52
2023-01-13T13:41:10.105Z,55.62
2023-01-13T13:44:00.903Z,55.87
2023-01-13T13:46:48.967Z,56.31
2023-01-13T13:49:36.183Z,56.62
2023-01-13T13:52:15.545Z,57.11
2023-01-13T13:54:47.968Z,57.28
2023-01-13T13:57:42.553Z,57.43
2023-01-13T14:00:20.126Z,57.46
2023-01-13T14:02:54.195Z,57.55
2023-01-13T14:05:25.003Z,57.55
2023-01-13T14:08:01.817Z,57.63
2023-01-13T14:10:46.122Z,57.85
2023-01-13T14:13:23.873Z,57.95
2023-01-13T14:16:06.548Z,58.12
2023-01-13T14:18:47.319Z,58.25
2023-01-13T14:21:28.871Z,58.29
2023-01-13T14:24:11.890Z,58.14
2023-01-13T14:26:40.097Z,58.28
2023-01-13T14:29:24.417Z,58.37
2023-01-13T14:31:54.839Z,58.51
2023-01-13T14:34:32.084Z,58.73
2023-01-13T14:37:03.107Z,58.79
2023-01-13T14:39:41.230Z,58.84
2023-01-13T14:42:14.307Z,58.82
2023-01-13T14:44:47.947Z,59.08
2023-01-13T14:47:25.459Z,59.19
2023-01-13T14:50:31.344Z,59.19
2023-01-13T14:53:00.793Z,59.32
2023-01-13T14:55:38.693Z,59.15
2023-01-13T14:58:18.828Z,59.10
2023-01-13T15:00:47.774Z,58.83
2023-01-13T15:03:21.117Z,58.88
2023-01-13T15:05:52.212Z,59.18
2023-01-13T15:08:34.849Z,59.56
2023-01-13T15:11:05.494Z,59.70
2023-01-13T15:13:53.245Z,59.81
2023-01-13T15:16:25.445Z,60.21
2023-01-13T15:18:55.523Z,60.24
2023-01-13T15:21:24.405Z,60.25
2023-01-13T15:23:52.520Z,60.18
2023-01-13T15:26:22.445Z,60.18
2023-01-13T15:28:51.813Z,60.04
2023-01-13T15:31:20.907Z,59.88
2023-01-13T15:33:49.672Z,59.55
2023-01-13T15:36:31.205Z,59.28
2023-01-13T15:39:00.796Z,58.88
2023-01-13T15:41:47.560Z,58.94
2023-01-13T15:44:35.398Z,59.00
2023-01-13T15:47:06.463Z,58.77
2023-01-13T15:49:39.392Z,58.56
2023-01-13T15:52:21.464Z,58.65
2023-01-13T15:54:50.828Z,58.55
2023-01-13T15:57:23.076Z,58.42
2023-01-13T15:59:53.187Z,58.56
2023-01-13T16:02:22.747Z,58.56
2023-01-13T16:04:53.981Z,58.63
2023-01-13T16:07:24.213Z,58.74
2023-01-13T16:09:52.327Z,58.47
2023-01-13T16:12:20.364Z,58.64
2023-01-13T16:14:48.317Z,58.94
2023-01-13T16:17:19.099Z,59.18
2023-01-13T16:19:47.911Z,59.43
2023-01-13T16:22:17.495Z,59.61
2023-01-13T16:24:45.624Z,59.74
2023-01-13T16:27:19.494Z,59.70
2023-01-13T16:29:48.339Z,60.14
2023-01-13T16:32:17.024Z,60.36
2023-01-13T16:34:45.097Z,60.50
2023-01-13T16:37:22.453Z,60.71
2023-01-13T16:39:51.502Z,60.93
2023-01-13T16:42:20.968Z,61.22
2023-01-13T16:44:49.768Z,61.10
2023-01-13T16:47:19.103Z,61.41
2023-01-13T16:49:47.133Z,61.54
2023-01-13T16:52:23.807Z,61.60
2023-01-13T16:54:52.540Z,61.57
2023-01-13T16:57:20.506Z,61.65
2023-01-13T16:59:48.500Z,61.47
2023-01-13T17:02:20.254Z,61.41
2023-01-13T17:04:48.871Z,61.30
2023-01-13T17:07:17.573Z,61.28
2023-01-13T17:09:45.613Z,61.30
2023-01-13T17:12:13.682Z,61.36
2023-01-13T17:14:43.491Z,61.56
2023-01-13T17:17:22.815Z,61.87
2023-01-13T17:19:52.107Z,62.10
2023-01-13T17:22:21.406Z,62.30
2023-01-13T17:24:49.261Z,62.38
2023-01-13T17:27:18.729Z,62.32
2023-01-13T17:29:46.935Z,62.46
2023-01-13T17:32:18.276Z,62.49
2023-01-13T17:34:46.281Z,62.54
2023-01-13T17:37:14.602Z,62.58
2023-01-13T17:39:44.334Z,62.62
2023-01-13T17:42:13.498Z,62.87
2023-01-13T17:45:14.223Z,63.25
2023-01-13T17:47:42.477Z,63.77
2023-01-13T17:50:10.636Z,64.10
2023-01-13T17:52:38.561Z,64.50
2023-01-13T17:55:06.816Z,64.82
2023-01-13T17:57:35.912Z,64.71
2023-01-13T18:00:13.351Z,64.93
2023-01-13T18:02:46.018Z,65.22
2023-01-13T18:05:14.110Z,65.51
2023-01-13T18:07:41.954Z,65.16
2023-01-13T18:10:10.847Z,65.39
2023-01-13T18:12:39.300Z,65.77
2023-01-13T18:15:08.707Z,65.96
2023-01-13T18:17:37.084Z,66.09
2023-01-13T18:20:24.715Z,66.57
2023-01-13T18:23:11.666Z,66.94
2023-01-13T18:25:58.254Z,66.96
2023-01-13T18:28:26.096Z,66.80
2023-01-13T18:30:54.165Z,66.77
2023-01-13T18:33:22.251Z,66.82
2023-01-13T18:35:50.685Z,66.94
2023-01-13T18:38:21.343Z,66.97
2023-01-13T18:40:49.683Z,66.96
2023-01-13T18:43:18.016Z,66.98
2023-01-13T18:45:50.310Z,66.85
2023-01-13T18:48:18.487Z,66.92
2023-01-13T18:50:47.704Z,67.00
2023-01-13T18:53:15.905Z,66.97
2023-01-13T18:55:45.962Z,67.05
2023-01-13T18:58:14.294Z,67.10
2023-01-13T19:00:42.266Z,67.22
2023-01-13T19:03:10.403Z,67.11
2023-01-13T19:05:38.545Z,67.50
2023-01-13T19:08:06.792Z,67.51
2023-01-13T19:10:34.854Z,67.76
2023-01-13T19:13:03.265Z,67.99
2023-01-13T19:15:31.455Z,68.05
2023-01-13T19:18:00.243Z,68.15
2023-01-13T19:20:28.264Z,68.26
2023-01-13T19:22:56.338Z,68.47
2023-01-13T19:25:24.913Z,68.57
2023-01-13T19:27:52.816Z,68.85
2023-01-13T19:30:21.104Z,68.81
2023-01-13T19:32:49.017Z,69.33
2023-01-13T19:35:18.161Z,69.35
2023-01-13T19:37:46.335Z,69.68
2023-01-13T19:40:14.878Z,69.77
2023-01-13T19:43:02.668Z,70.15
2023-01-13T19:45:33.562Z,70.18
2023-01-13T19:48:02.578Z,70.28
2023-01-13T19:50:30.701Z,70.41
2023-01-13T19:52:58.698Z,70.63
2023-01-13T19:55:26.773Z,70.63
2023-01-13T19:57:56.117Z,70.63
2023-01-13T20:00:31.054Z,70.75
2023-01-13T20:03:03.531Z,70.87
2023-01-13T20:05:31.709Z,71.20
2023-01-13T20:07:59.785Z,71.32
2023-01-13T20:10:30.441Z,71.46
2023-01-13T20:12:58.819Z,71.56
2023-01-13T20:15:26.974Z,71.65
2023-01-13T20:17:56.202Z,71.60
2023-01-13T20:20:26.898Z,71.75
2023-01-13T20:22:54.785Z,71.61
2023-01-13T20:25:22.806Z,71.57
2023-01-13T20:27:51.067Z,71.69
2023-01-13T20:30:19.105Z,71.57
2023-01-13T20:32:47.019Z,71.70
2023-01-13T20:35:15.376Z,71.58
2023-01-13T20:37:43.968Z,71.55
2023-01-13T20:40:15.547Z,71.48
2023-01-13T20:42:46.430Z,71.67
2023-01-13T20:45:21.676Z,71.75
2023-01-13T20:47:49.722Z,71.86
2023-01-13T20:50:17.886Z,71.74
2023-01-13T20:52:46.765Z,71.80
2023-01-13T20:55:15.124Z,71.83
2023-01-13T20:57:43.188Z,71.88
2023-01-13T21:00:12.123Z,71.87
2023-01-13T21:02:41.658Z,71.75
2023-01-13T21:05:10.284Z,71.67
2023-01-13T21:07:38.370Z,71.75
2023-01-13T21:10:08.039Z,71.62
2023-01-13T21:13:02.275Z,71.80
2023-01-13T21:15:30.312Z,71.73
2023-01-13T21:18:16.930Z,71.91
2023-01-13T21:20:45.887Z,71.78
2023-01-13T21:23:13.974Z,71.65
2023-01-13T21:25:41.956Z,71.72
2023-01-13T21:28:11.789Z,71.66
2023-01-13T21:30:40.167Z,71.69
2023-01-13T21:33:13.477Z,71.82
2023-01-13T21:35:41.634Z,71.83
2023-01-13T21:38:10.983Z,71.98
2023-01-13T21:40:39.211Z,71.95
2023-01-13T21:43:47.271Z,71.77
2023-01-13T21:46:35.068Z,71.71
2023-01-13T21:49:04.704Z,71.91
2023-01-13T21:51:33.887Z,71.81
2023-01-13T21:54:02.000Z,71.84
2023-01-13T21:56:29.908Z,71.95
2023-01-13T21:58:57.882Z,71.81
2023-01-13T22:01:26.085Z,71.70
2023-01-13T22:04:16.952Z,71.63
2023-01-13T22:06:44.989Z,71.58
2023-01-13T22:09:13.843Z,71.67
2023-01-13T22:11:41.771Z,71.60
2023-01-13T22:14:10.177Z,71.65
2023-01-13T22:16:41.952Z,71.73
2023-01-13T22:19:10.979Z,71.75
2023-01-13T22:21:40.075Z,71.71
2023-01-13T22:24:08.538Z,71.69
2023-01-13T22:26:36.637Z,71.56
2023-01-13T22:29:04.713Z,71.34
2023-01-13T22:31:32.729Z,71.27
2023-01-13T22:34:00.797Z,71.17
2023-01-13T22:36:28.728Z,71.33
2023-01-13T22:38:56.750Z,71.30
2023-01-13T22:41:25.052Z,71.14
2023-01-13T22:43:53.062Z,71.13
2023-01-13T22:46:25.908Z,71.22
2023-01-13T22:48:55.998Z,71.27
2023-01-13T22:51:26.729Z,71.35
2023-01-13T22:54:02.772Z,71.16
2023-01-13T23:00:02.030Z,71.21
2023-01-13T23:02:53.843Z,71.19
2023-01-13T23:05:23.267Z,71.03
2023-01-13T23:07:51.258Z,71.07
2023-01-13T23:10:20.609Z,71.00
2023-01-13T23:13:13.799Z,70.99
2023-01-13T23:16:21.427Z,70.93
2023-01-13T23:18:51.575Z,70.88
2023-01-13T23:21:26.480Z,71.05
2023-01-13T23:23:56.780Z,70.90
2023-01-13T23:26:27.687Z,70.85
2023-01-13T23:29:08.347Z,70.72
2023-01-13T23:31:36.471Z,70.54
2023-01-13T23:34:04.650Z,70.78
2023-01-13T23:36:33.475Z,70.74
2023-01-13T23:39:01.277Z,70.63
2023-01-13T23:41:29.323Z,70.48
2023-01-13T23:44:00.335Z,70.50
2023-01-13T23:46:30.975Z,70.70
2023-01-13T23:48:59.009Z,70.69
2023-01-13T23:51:30.037Z,70.74
2023-01-13T23:53:59.238Z,70.63
2023-01-13T23:56:29.912Z,70.63
2023-01-13T23:58:58.709Z,70.63
